Pagina principală
METAR-TAF:

METAR-TAF

Aeroporturi :

Berbérati, Republica Centrafricană

Latitudine: 04-15N, longitudine: 015-48E, elevație: 582 m

Observații meteo curente

Raportul a fost făcut în urmă cu 38 de minute, la 10:00 UTC
Vânt 4 kt de la Sud-vest
Temperatură 30°C
Umiditate 55%
Presiune 1015 hPa
Vizibilitate de 10 km sau mai mult
Nori împrăștiați la o înălțime de 2500 picior

METAR: FEFT 211000Z 22004KT 9999 SCT025 30/20 Q1015

Ora: 11:38 (10:38 UTC)


TAF: lipsă

Observații și prognoze meteo pentru peste 4.000 de aeroporturi (rapoarte METAR și TAF).

Stațiile disponibile sunt reprezentate pe hartă prin puncte galbene și roșii.

Țineți indicatorul mouse-ului pe punctul dorit pentru a vedea denumirea stației.

Apoi, faceți clic pentru a vedea observațiile și prognozele meteorologice.

Pentru a schimba harta: Pentru mărire, faceți clic pe butoanele verzi cu cruce neagră; pentru micșorare, pe butonul verde cu o liniuță; pentru hărți învecinate, pe săgețile verzi.


METAR-TAF: